createdAt,value
2019-02-27T00:02:30.236Z,9.80
2019-02-27T00:05:00.313Z,9.80
2019-02-27T00:07:30.275Z,9.80
2019-02-27T00:10:00.486Z,9.80
2019-02-27T00:12:30.397Z,9.90
2019-02-27T00:15:02.207Z,9.70
2019-02-27T00:17:32.296Z,9.70
2019-02-27T00:20:05.087Z,9.60
2019-02-27T00:22:34.380Z,9.40
2019-02-27T00:25:04.800Z,9.30
2019-02-27T00:27:34.791Z,9.20
2019-02-27T00:30:06.915Z,9.10
2019-02-27T00:32:36.984Z,9.10
2019-02-27T00:35:07.525Z,9.10
2019-02-27T00:37:37.985Z,9.30
2019-02-27T00:40:08.732Z,9.20
2019-02-27T00:42:38.726Z,9.10
2019-02-27T00:45:12.055Z,9.10
2019-02-27T00:47:42.261Z,9.00
2019-02-27T00:50:12.231Z,9.00
2019-02-27T00:52:42.776Z,8.80
2019-02-27T00:55:13.082Z,8.90
2019-02-27T00:57:43.188Z,8.70
2019-02-27T01:00:19.000Z,8.60
2019-02-27T01:02:52.639Z,8.30
2019-02-27T01:05:21.075Z,8.20
2019-02-27T01:07:53.793Z,8.40
2019-02-27T01:10:23.379Z,8.80
2019-02-27T01:12:57.670Z,8.80
2019-02-27T01:15:25.764Z,8.80
2019-02-27T01:17:57.451Z,8.70
2019-02-27T01:20:27.750Z,8.70
2019-02-27T01:22:57.666Z,8.70
2019-02-27T01:25:28.488Z,8.70
2019-02-27T01:27:58.646Z,8.70
2019-02-27T01:30:28.979Z,8.70
2019-02-27T01:33:03.990Z,8.80
2019-02-27T01:35:31.061Z,9.00
2019-02-27T01:38:05.075Z,8.90
2019-02-27T01:40:32.755Z,8.90
2019-02-27T01:43:05.478Z,8.90
2019-02-27T01:45:34.461Z,8.80
2019-02-27T01:48:08.934Z,8.40
2019-02-27T01:50:37.648Z,8.30
2019-02-27T01:53:08.185Z,8.40
2019-02-27T01:55:38.823Z,8.40
2019-02-27T01:58:09.555Z,8.40
2019-02-27T02:00:40.719Z,8.50
2019-02-27T02:03:11.185Z,8.50
2019-02-27T02:05:42.699Z,8.40
2019-02-27T02:08:13.958Z,8.00
2019-02-27T02:10:44.300Z,8.10
2019-02-27T02:13:18.737Z,8.10
2019-02-27T02:16:02.029Z,8.20
2019-02-27T02:18:39.040Z,8.10
2019-02-27T02:21:32.050Z,8.00
2019-02-27T02:24:29.954Z,8.00
2019-02-27T02:27:16.285Z,7.90
2019-02-27T02:30:02.517Z,8.00
2019-02-27T02:32:52.014Z,8.00
2019-02-27T02:35:51.135Z,7.90
2019-02-27T02:39:01.221Z,7.90
2019-02-27T02:41:52.272Z,8.00
2019-02-27T02:44:41.846Z,8.10
2019-02-27T02:47:30.830Z,7.90
2019-02-27T02:50:38.490Z,7.50
2019-02-27T02:54:00.690Z,7.60
2019-02-27T02:56:38.574Z,7.90
2019-02-27T02:59:47.555Z,7.90
2019-02-27T03:02:40.038Z,7.70
2019-02-27T03:05:43.967Z,7.60
2019-02-27T03:08:42.385Z,7.70
2019-02-27T03:11:54.761Z,7.90
2019-02-27T03:14:35.793Z,7.80
2019-02-27T03:17:37.551Z,7.90
2019-02-27T03:20:26.831Z,7.80
2019-02-27T03:23:32.430Z,7.60
2019-02-27T03:26:09.620Z,8.00
2019-02-27T03:28:59.191Z,7.80
2019-02-27T03:32:03.424Z,7.60
2019-02-27T03:35:15.007Z,7.50
2019-02-27T03:38:04.186Z,7.40
2019-02-27T03:41:04.088Z,7.40
2019-02-27T03:44:06.933Z,7.30
2019-02-27T03:46:47.162Z,7.00
2019-02-27T03:49:40.866Z,7.10
2019-02-27T03:52:43.949Z,7.20
2019-02-27T03:55:34.564Z,7.30
2019-02-27T03:58:36.629Z,7.40
2019-02-27T04:01:39.664Z,7.20
2019-02-27T04:04:30.564Z,7.20
2019-02-27T04:07:31.899Z,7.30
2019-02-27T04:10:02.294Z,7.50
2019-02-27T04:12:32.138Z,7.50
2019-02-27T04:15:02.227Z,7.60
2019-02-27T04:17:30.364Z,7.30
2019-02-27T04:20:00.320Z,7.20
2019-02-27T04:22:30.286Z,7.00
2019-02-27T04:25:00.596Z,7.00
2019-02-27T04:27:30.505Z,7.20
2019-02-27T04:30:00.521Z,7.40
2019-02-27T04:32:30.430Z,7.60
2019-02-27T04:35:00.638Z,7.60
2019-02-27T04:37:30.554Z,7.60
2019-02-27T04:40:00.564Z,7.50
2019-02-27T04:42:30.481Z,7.40
2019-02-27T04:45:00.393Z,7.10
2019-02-27T04:47:30.405Z,6.80
2019-02-27T04:50:00.317Z,6.70
2019-02-27T04:52:30.524Z,6.70
2019-02-27T04:55:00.439Z,6.60
2019-02-27T04:57:33.397Z,6.70
2019-02-27T05:00:02.250Z,6.70
2019-02-27T05:02:32.149Z,6.90
2019-02-27T05:05:02.062Z,6.90
2019-02-27T05:07:31.971Z,6.80
2019-02-27T05:10:01.885Z,6.80
2019-02-27T05:12:31.851Z,6.70
2019-02-27T05:15:04.059Z,6.70
2019-02-27T05:17:33.550Z,6.70
2019-02-27T05:20:04.391Z,6.50
2019-02-27T05:22:34.506Z,6.60
2019-02-27T05:25:04.906Z,6.60
2019-02-27T05:27:34.821Z,6.60
2019-02-27T05:30:06.919Z,6.60
2019-02-27T05:32:36.907Z,6.80
2019-02-27T05:35:07.412Z,6.70
2019-02-27T05:37:39.301Z,6.70
2019-02-27T05:40:11.636Z,7.00
2019-02-27T05:42:41.870Z,7.00
2019-02-27T05:45:13.998Z,6.80
2019-02-27T05:47:45.789Z,6.80
2019-02-27T05:50:15.933Z,6.70
2019-02-27T05:52:48.714Z,6.90
2019-02-27T05:55:17.733Z,7.00
2019-02-27T05:57:48.034Z,6.80
2019-02-27T06:00:21.788Z,6.70
2019-02-27T06:02:51.853Z,6.70
2019-02-27T06:05:21.929Z,6.80
2019-02-27T06:07:51.918Z,6.80
2019-02-27T06:10:23.607Z,6.70
2019-02-27T06:12:53.455Z,6.50
2019-02-27T06:15:26.060Z,6.30
2019-02-27T06:17:55.599Z,6.10
2019-02-27T06:20:25.510Z,6.20
2019-02-27T06:22:55.621Z,6.20
2019-02-27T06:25:25.732Z,6.20
2019-02-27T06:27:55.647Z,6.50
2019-02-27T06:30:27.970Z,6.50
2019-02-27T06:32:57.634Z,6.50
2019-02-27T06:35:27.547Z,6.50
2019-02-27T06:37:57.462Z,6.50
2019-02-27T06:40:27.279Z,6.50
2019-02-27T06:42:57.189Z,6.50
2019-02-27T06:45:27.497Z,6.60
2019-02-27T06:47:57.445Z,6.60
2019-02-27T06:50:27.329Z,6.50
2019-02-27T06:52:57.532Z,6.60
2019-02-27T06:55:28.051Z,6.60
2019-02-27T06:57:58.735Z,6.60
2019-02-27T07:00:28.752Z,6.60
2019-02-27T07:02:58.762Z,6.50
2019-02-27T07:05:28.672Z,6.40
2019-02-27T07:07:58.586Z,6.40
2019-02-27T07:10:28.598Z,6.40
2019-02-27T07:12:58.511Z,6.40
2019-02-27T07:15:28.965Z,6.40
2019-02-27T07:17:58.930Z,6.40
2019-02-27T07:20:28.848Z,6.40
2019-02-27T07:22:59.252Z,6.50
2019-02-27T07:25:29.359Z,6.50
2019-02-27T07:27:59.466Z,6.50
2019-02-27T07:30:29.778Z,6.50
2019-02-27T07:32:59.784Z,6.50
2019-02-27T07:35:29.701Z,6.60
2019-02-27T07:37:59.617Z,6.70
2019-02-27T07:40:30.022Z,6.60
2019-02-27T07:42:59.930Z,6.70
2019-02-27T07:45:29.945Z,6.70
2019-02-27T07:47:59.856Z,6.90
2019-02-27T07:50:29.770Z,7.00
2019-02-27T07:52:59.879Z,7.10
2019-02-27T07:55:30.185Z,7.20
2019-02-27T07:58:00.102Z,7.20
2019-02-27T08:00:30.013Z,7.20
2019-02-27T08:03:00.309Z,7.30
2019-02-27T08:05:30.527Z,7.40
2019-02-27T08:08:00.937Z,7.50
2019-02-27T08:10:30.946Z,7.60
2019-02-27T08:13:01.053Z,7.70
2019-02-27T08:15:31.361Z,7.80
2019-02-27T08:18:01.408Z,8.00
2019-02-27T08:20:31.385Z,8.00
2019-02-27T08:23:01.298Z,8.00
2019-02-27T08:25:31.215Z,8.10
2019-02-27T08:28:01.131Z,8.20
2019-02-27T08:30:31.239Z,8.30
2019-02-27T08:33:01.150Z,8.40
2019-02-27T08:35:31.852Z,8.50
2019-02-27T08:38:02.972Z,8.60
2019-02-27T08:40:32.957Z,8.70
2019-02-27T08:43:02.872Z,8.80
2019-02-27T08:45:32.787Z,8.80
2019-02-27T08:48:02.703Z,9.00
2019-02-27T08:50:32.607Z,9.10
2019-02-27T08:53:02.820Z,9.20
2019-02-27T08:55:33.660Z,9.30
2019-02-27T08:58:03.624Z,9.50
2019-02-27T09:00:34.822Z,9.60
2019-02-27T09:03:05.125Z,9.80
2019-02-27T09:05:35.036Z,9.90
2019-02-27T09:08:07.318Z,10.00
2019-02-27T09:10:36.831Z,10.10
2019-02-27T09:13:07.561Z,10.30
2019-02-27T09:15:38.136Z,10.40
2019-02-27T09:18:09.131Z,10.50
2019-02-27T09:20:39.342Z,10.60
2019-02-27T09:23:09.251Z,10.70
2019-02-27T09:25:39.360Z,10.80
2019-02-27T09:28:10.066Z,10.90
2019-02-27T09:30:40.073Z,11.00
2019-02-27T09:33:10.230Z,11.10
2019-02-27T09:35:40.586Z,11.10
2019-02-27T09:38:10.499Z,11.30
2019-02-27T09:40:40.612Z,11.60
2019-02-27T09:43:11.725Z,11.70
2019-02-27T09:45:46.182Z,11.80
2019-02-27T09:48:13.594Z,11.80
2019-02-27T09:50:48.234Z,11.80
2019-02-27T09:53:18.141Z,11.80
2019-02-27T09:55:48.053Z,12.10
2019-02-27T09:58:17.967Z,12.20
2019-02-27T10:00:59.222Z,12.30
2019-02-27T10:03:27.328Z,12.80
2019-02-27T10:05:57.341Z,13.40
2019-02-27T10:08:27.144Z,13.30
2019-02-27T10:10:57.072Z,13.70
2019-02-27T10:13:27.378Z,14.90
2019-02-27T10:16:00.599Z,16.20
2019-02-27T10:18:29.074Z,16.60
2019-02-27T10:20:59.181Z,17.10
2019-02-27T10:23:31.185Z,16.70
2019-02-27T10:26:00.782Z,16.80
2019-02-27T10:28:30.885Z,17.00
2019-02-27T10:31:00.801Z,18.20
2019-02-27T10:33:30.717Z,18.80
2019-02-27T10:36:03.026Z,18.30
2019-02-27T10:38:32.411Z,18.50
2019-02-27T10:41:02.433Z,18.60
2019-02-27T10:43:32.431Z,18.90
2019-02-27T10:46:02.543Z,19.60
2019-02-27T10:48:32.457Z,19.90
2019-02-27T10:51:02.369Z,19.80
2019-02-27T10:53:32.392Z,19.80
2019-02-27T10:56:02.394Z,20.00
2019-02-27T10:58:32.505Z,20.30
2019-02-27T11:01:02.909Z,20.40
2019-02-27T11:03:32.931Z,19.50
2019-02-27T11:06:02.931Z,19.30
2019-02-27T11:08:32.943Z,20.10
2019-02-27T11:11:02.955Z,20.20
2019-02-27T11:13:32.870Z,21.00
2019-02-27T11:16:03.075Z,20.90
2019-02-27T11:18:32.990Z,20.80
2019-02-27T11:21:03.298Z,20.40
2019-02-27T11:23:33.511Z,21.40
2019-02-27T11:26:03.423Z,21.50
2019-02-27T11:28:33.431Z,21.90
2019-02-27T11:31:03.344Z,22.30
2019-02-27T11:33:33.568Z,23.40
2019-02-27T11:36:05.757Z,23.40
2019-02-27T11:38:35.937Z,23.30
2019-02-27T11:41:05.946Z,23.50
2019-02-27T11:43:37.953Z,23.40
2019-02-27T11:46:08.055Z,23.80
2019-02-27T11:48:38.158Z,23.80
2019-02-27T11:51:08.156Z,24.70
2019-02-27T11:53:38.073Z,24.70
2019-02-27T11:56:08.418Z,24.00
2019-02-27T11:58:39.163Z,23.80
2019-02-27T12:01:12.051Z,23.60
2019-02-27T12:03:45.690Z,24.70
2019-02-27T12:06:13.503Z,24.70
2019-02-27T12:08:43.958Z,24.90
2019-02-27T12:11:14.254Z,24.70
2019-02-27T12:13:44.750Z,24.70
2019-02-27T12:16:18.303Z,25.80
2019-02-27T12:18:46.944Z,25.80
2019-02-27T12:21:17.376Z,25.50
2019-02-27T12:23:47.553Z,25.60
2019-02-27T12:26:17.560Z,25.90
2019-02-27T12:28:52.503Z,25.80
2019-02-27T12:31:19.552Z,26.20
2019-02-27T12:33:49.469Z,26.10
2019-02-27T12:36:19.877Z,26.40
2019-02-27T12:38:49.783Z,26.10
2019-02-27T12:41:19.696Z,25.90
2019-02-27T12:43:52.637Z,25.30
2019-02-27T12:46:21.295Z,25.90
2019-02-27T12:48:51.402Z,26.20
2019-02-27T12:51:21.314Z,25.70
2019-02-27T12:53:54.412Z,26.20
2019-02-27T12:56:23.019Z,26.70
2019-02-27T12:58:53.028Z,26.60
2019-02-27T13:01:22.939Z,26.40
2019-02-27T13:03:52.851Z,26.70
2019-02-27T13:06:22.766Z,26.50
2019-02-27T13:08:53.471Z,26.70
2019-02-27T13:11:23.571Z,26.80
2019-02-27T13:13:53.595Z,26.00
2019-02-27T13:16:23.697Z,25.90
2019-02-27T13:18:54.099Z,25.90
2019-02-27T13:21:24.109Z,26.30
2019-02-27T13:23:55.734Z,26.20
2019-02-27T13:26:25.902Z,26.40
2019-02-27T13:28:55.819Z,26.60
2019-02-27T13:31:26.930Z,26.60
2019-02-27T13:33:57.019Z,26.60
2019-02-27T13:36:26.936Z,26.90
2019-02-27T13:38:59.318Z,26.80
2019-02-27T13:41:29.023Z,26.50
2019-02-27T13:44:01.343Z,26.50
2019-02-27T13:46:30.716Z,26.60
2019-02-27T13:49:00.633Z,25.90
2019-02-27T13:51:30.934Z,26.10
2019-02-27T13:54:01.279Z,26.70
2019-02-27T13:56:31.450Z,26.80
2019-02-27T13:59:01.503Z,26.30
2019-02-27T14:01:31.474Z,26.30
2019-02-27T14:04:01.392Z,26.80
2019-02-27T14:06:31.304Z,26.30
2019-02-27T14:09:01.214Z,26.10
2019-02-27T14:11:31.619Z,26.30
2019-02-27T14:14:01.635Z,26.30
2019-02-27T14:16:34.567Z,26.40
2019-02-27T14:19:03.424Z,26.30
2019-02-27T14:21:35.522Z,26.50
2019-02-27T14:24:05.335Z,26.40
2019-02-27T14:26:35.227Z,26.00
2019-02-27T14:29:05.242Z,26.10
2019-02-27T14:31:35.254Z,26.20
2019-02-27T14:34:05.464Z,26.10
2019-02-27T14:36:35.963Z,26.20
2019-02-27T14:39:08.856Z,26.30
2019-02-27T14:41:38.838Z,26.00
2019-02-27T14:44:09.144Z,25.90
2019-02-27T14:46:39.061Z,26.10
2019-02-27T14:49:09.671Z,26.00
2019-02-27T14:51:41.203Z,26.10
2019-02-27T14:54:11.356Z,25.90
2019-02-27T14:56:41.907Z,26.20
2019-02-27T14:59:12.952Z,26.00
2019-02-27T15:01:42.865Z,25.90
2019-02-27T15:04:12.976Z,25.90
2019-02-27T15:06:43.183Z,26.00
2019-02-27T15:09:13.491Z,26.00
2019-02-27T15:11:44.934Z,26.10
2019-02-27T15:14:15.480Z,25.90
2019-02-27T15:16:49.034Z,25.80
2019-02-27T15:19:18.904Z,25.50
2019-02-27T15:21:49.152Z,25.10
2019-02-27T15:24:19.065Z,25.00
2019-02-27T15:26:50.715Z,25.00
2019-02-27T15:29:21.349Z,25.00
2019-02-27T15:31:52.173Z,25.10
2019-02-27T15:34:22.945Z,25.00
2019-02-27T15:36:53.647Z,24.80
2019-02-27T15:39:23.952Z,24.90
2019-02-27T15:41:53.867Z,24.70
2019-02-27T15:44:23.976Z,24.80
2019-02-27T15:46:56.622Z,24.80
2019-02-27T15:49:25.571Z,24.80
2019-02-27T15:51:55.590Z,24.70
2019-02-27T15:54:25.793Z,24.70
2019-02-27T15:56:55.706Z,24.70
2019-02-27T15:59:25.689Z,24.50
2019-02-27T16:01:55.569Z,24.60
2019-02-27T16:04:26.006Z,24.60
2019-02-27T16:06:55.959Z,24.60
2019-02-27T16:09:26.160Z,24.60
2019-02-27T16:11:56.269Z,24.50
2019-02-27T16:14:26.180Z,24.50
2019-02-27T16:16:57.576Z,24.50
2019-02-27T16:19:27.776Z,24.60
2019-02-27T16:21:57.957Z,24.50
2019-02-27T16:24:28.196Z,24.50
2019-02-27T16:27:01.344Z,24.40
2019-02-27T16:29:30.574Z,24.40
2019-02-27T16:32:00.587Z,24.30
2019-02-27T16:34:33.251Z,24.20
2019-02-27T16:37:02.480Z,24.10
2019-02-27T16:39:32.984Z,24.00
2019-02-27T16:42:05.215Z,23.90
2019-02-27T16:44:35.206Z,23.80
2019-02-27T16:47:05.183Z,23.80
2019-02-27T16:49:35.093Z,23.70
2019-02-27T16:52:07.888Z,23.60
2019-02-27T16:54:36.689Z,23.30
2019-02-27T16:57:07.290Z,23.00
2019-02-27T16:59:37.492Z,22.90
2019-02-27T17:02:07.411Z,22.70
2019-02-27T17:04:37.327Z,22.70
2019-02-27T17:07:07.344Z,22.40
2019-02-27T17:09:37.449Z,22.70
2019-02-27T17:12:07.991Z,22.60
2019-02-27T17:14:39.372Z,21.90
2019-02-27T17:17:09.552Z,21.50
2019-02-27T17:19:39.755Z,21.20
2019-02-27T17:22:10.974Z,21.10
2019-02-27T17:24:40.957Z,21.00
2019-02-27T17:27:12.989Z,21.10
2019-02-27T17:29:42.654Z,21.10
2019-02-27T17:32:12.472Z,20.90
2019-02-27T17:34:47.224Z,20.70
2019-02-27T17:37:14.563Z,20.50
2019-02-27T17:39:45.439Z,20.20
2019-02-27T17:42:18.296Z,20.00
2019-02-27T17:44:47.443Z,19.90
2019-02-27T17:47:17.359Z,19.80
2019-02-27T17:49:47.184Z,19.70
2019-02-27T17:52:17.183Z,19.70
2019-02-27T17:54:47.103Z,19.50
2019-02-27T17:57:17.012Z,19.50
2019-02-27T17:59:46.922Z,19.50
2019-02-27T18:02:16.932Z,19.30
2019-02-27T18:04:51.032Z,18.90
2019-02-27T18:07:18.628Z,18.70
2019-02-27T18:09:48.542Z,18.80
2019-02-27T18:12:18.749Z,18.60
2019-02-27T18:14:48.662Z,18.30
2019-02-27T18:17:18.493Z,18.10
2019-02-27T18:19:50.333Z,17.90
2019-02-27T18:22:20.065Z,17.90
2019-02-27T18:24:50.088Z,17.90
2019-02-27T18:27:24.648Z,17.60
2019-02-27T18:29:51.682Z,17.50
2019-02-27T18:32:21.699Z,17.30
2019-02-27T18:34:54.666Z,17.30
2019-02-27T18:37:24.182Z,17.30
2019-02-27T18:39:54.197Z,17.30
2019-02-27T18:42:24.135Z,17.10
2019-02-27T18:44:54.416Z,17.20
2019-02-27T18:47:24.321Z,17.10
2019-02-27T18:49:54.353Z,16.90
2019-02-27T18:52:24.648Z,16.60
2019-02-27T18:54:55.617Z,16.60
2019-02-27T18:57:25.713Z,16.50
2019-02-27T18:59:57.480Z,16.30
2019-02-27T19:02:27.546Z,16.20
2019-02-27T19:04:57.649Z,15.90
2019-02-27T19:07:27.965Z,15.90
2019-02-27T19:09:58.512Z,16.00
2019-02-27T19:12:28.731Z,16.10
2019-02-27T19:14:59.130Z,16.00
2019-02-27T19:17:32.081Z,15.80
2019-02-27T19:20:00.981Z,15.70
2019-02-27T19:22:31.269Z,15.80
2019-02-27T19:25:01.281Z,15.50
2019-02-27T19:27:31.594Z,15.20
2019-02-27T19:30:06.291Z,15.00
2019-02-27T19:32:33.677Z,15.10
2019-02-27T19:35:03.770Z,15.00
2019-02-27T19:37:38.688Z,14.70
2019-02-27T19:40:15.539Z,14.70
2019-02-27T19:43:04.997Z,14.60
2019-02-27T19:45:35.805Z,14.30
2019-02-27T19:48:07.202Z,14.30
2019-02-27T19:50:37.572Z,14.30
2019-02-27T19:53:08.772Z,14.30
2019-02-27T19:55:39.419Z,14.30
2019-02-27T19:58:09.682Z,14.30
2019-02-27T20:00:47.941Z,14.20
2019-02-27T20:03:11.854Z,14.10
2019-02-27T20:05:41.876Z,14.20
2019-02-27T20:08:11.976Z,14.20
2019-02-27T20:10:44.059Z,13.80
2019-02-27T20:13:14.175Z,13.70
2019-02-27T20:15:45.481Z,13.60
2019-02-27T20:18:16.757Z,13.50
2019-02-27T20:20:47.247Z,13.40
2019-02-27T20:23:17.354Z,13.40
2019-02-27T20:25:47.857Z,13.30
2019-02-27T20:28:17.770Z,13.40
2019-02-27T20:30:48.289Z,13.30
2019-02-27T20:33:18.641Z,13.20
2019-02-27T20:35:48.790Z,13.40
2019-02-27T20:38:19.787Z,13.60
2019-02-27T20:40:49.697Z,13.50
2019-02-27T20:43:19.807Z,13.30
2019-02-27T20:45:49.860Z,13.20
2019-02-27T20:48:19.828Z,13.10
2019-02-27T20:50:55.336Z,13.40
2019-02-27T20:53:25.555Z,13.50
2019-02-27T20:55:55.510Z,13.60
2019-02-27T20:58:25.580Z,13.20
2019-02-27T21:00:55.886Z,13.30
2019-02-27T21:03:27.359Z,13.10
2019-02-27T21:05:57.594Z,13.10
2019-02-27T21:08:27.493Z,13.20
2019-02-27T21:10:57.506Z,13.00
2019-02-27T21:13:27.710Z,12.90
2019-02-27T21:15:57.723Z,12.70
2019-02-27T21:18:29.118Z,12.60
2019-02-27T21:20:59.417Z,12.60
2019-02-27T21:23:31.802Z,12.80
2019-02-27T21:26:01.358Z,12.70
2019-02-27T21:28:31.517Z,12.60
2019-02-27T21:31:01.527Z,12.80
2019-02-27T21:33:31.636Z,12.90
2019-02-27T21:36:03.364Z,13.00
2019-02-27T21:38:33.334Z,12.70
2019-02-27T21:41:03.447Z,12.50
2019-02-27T21:43:33.420Z,12.50
2019-02-27T21:46:03.564Z,12.20
2019-02-27T21:48:34.171Z,12.20
2019-02-27T21:51:04.675Z,12.20
2019-02-27T21:53:34.955Z,12.20
2019-02-27T21:56:04.950Z,12.10
2019-02-27T21:58:34.997Z,11.90
2019-02-27T22:01:05.206Z,12.00
2019-02-27T22:03:38.404Z,12.10
2019-02-27T22:06:07.443Z,12.20
2019-02-27T22:08:38.913Z,12.20
2019-02-27T22:11:09.004Z,11.80
2019-02-27T22:13:42.083Z,11.70
2019-02-27T22:16:10.979Z,11.70
2019-02-27T22:18:41.182Z,11.60
2019-02-27T22:21:11.199Z,11.50
2019-02-27T22:23:41.018Z,11.60
2019-02-27T22:26:11.420Z,11.50
2019-02-27T22:28:41.528Z,11.60
2019-02-27T22:31:11.443Z,11.60
2019-02-27T22:33:41.844Z,11.60
2019-02-27T22:36:12.819Z,11.70
2019-02-27T22:38:43.734Z,11.70
2019-02-27T22:41:13.913Z,11.80
2019-02-27T22:43:44.063Z,11.80
2019-02-27T22:46:16.494Z,11.70
2019-02-27T22:48:45.677Z,11.60
2019-02-27T22:51:15.859Z,11.60
2019-02-27T22:53:45.727Z,11.50
2019-02-27T22:56:16.870Z,11.30
2019-02-27T22:58:49.399Z,11.30
2019-02-27T23:01:22.919Z,11.40
2019-02-27T23:03:57.908Z,11.40
2019-02-27T23:06:28.426Z,11.10
2019-02-27T23:08:59.900Z,11.00
2019-02-27T23:11:30.205Z,10.80
2019-02-27T23:14:00.125Z,10.90
2019-02-27T23:16:30.611Z,10.90
2019-02-27T23:19:00.978Z,10.80
2019-02-27T23:21:30.937Z,10.60
2019-02-27T23:24:00.864Z,10.60
2019-02-27T23:26:31.064Z,10.70
2019-02-27T23:29:01.072Z,10.90
2019-02-27T23:31:31.006Z,11.00
2019-02-27T23:34:01.001Z,11.00
2019-02-27T23:36:31.008Z,10.30
2019-02-27T23:39:00.927Z,9.90
2019-02-27T23:41:30.934Z,9.90
2019-02-27T23:44:00.947Z,10.30
2019-02-27T23:46:30.860Z,10.20
2019-02-27T23:49:00.871Z,10.40
2019-02-27T23:51:31.178Z,10.20
2019-02-27T23:54:02.013Z,10.30
2019-02-27T23:56:32.085Z,10.10
2019-02-27T23:59:02.571Z,10.10
